createdAt,value
2018-02-15T00:00:54.703Z,60.20
2018-02-15T00:03:22.932Z,60.50
2018-02-15T00:05:50.399Z,60.40
2018-02-15T00:08:17.906Z,60.50
2018-02-15T00:10:45.384Z,60.50
2018-02-15T00:13:12.904Z,60.60
2018-02-15T00:15:41.164Z,60.40
2018-02-15T00:18:08.667Z,60.30
2018-02-15T00:20:36.136Z,60.10
2018-02-15T00:23:03.680Z,60.00
2018-02-15T00:25:31.156Z,60.20
2018-02-15T00:27:58.660Z,60.10
2018-02-15T00:30:26.980Z,60.90
2018-02-15T00:32:54.466Z,60.20
2018-02-15T00:35:21.959Z,60.60
2018-02-15T00:37:50.220Z,60.00
2018-02-15T00:40:17.696Z,60.00
2018-02-15T00:42:45.954Z,60.10
2018-02-15T00:45:13.416Z,60.10
2018-02-15T00:47:40.929Z,60.20
2018-02-15T00:50:08.420Z,60.10
2018-02-15T00:52:35.954Z,60.40
2018-02-15T00:55:03.420Z,60.10
2018-02-15T00:57:30.920Z,61.10
2018-02-15T00:59:59.168Z,60.40
2018-02-15T01:02:26.662Z,60.40
2018-02-15T01:04:54.127Z,60.50
2018-02-15T01:07:21.637Z,60.50
2018-02-15T01:09:49.103Z,60.50
2018-02-15T01:12:16.598Z,60.70
2018-02-15T01:14:44.068Z,60.70
2018-02-15T01:17:11.550Z,60.90
2018-02-15T01:19:39.022Z,60.60
2018-02-15T01:22:06.523Z,60.70
2018-02-15T01:24:34.004Z,60.70
2018-02-15T01:27:01.523Z,61.00
2018-02-15T01:29:29.798Z,61.10
2018-02-15T01:31:58.027Z,60.80
2018-02-15T01:34:25.528Z,60.70
2018-02-15T01:36:53.772Z,60.40
2018-02-15T01:39:22.040Z,60.80
2018-02-15T01:41:49.513Z,60.70
2018-02-15T01:44:16.999Z,60.80
2018-02-15T01:46:45.221Z,60.80
2018-02-15T01:49:12.733Z,60.70
2018-02-15T01:51:40.972Z,60.80
2018-02-15T01:54:08.467Z,60.80
2018-02-15T01:56:36.745Z,61.20
2018-02-15T01:59:05.116Z,61.20
2018-02-15T02:01:32.573Z,61.10
2018-02-15T02:04:00.852Z,61.50
2018-02-15T02:06:29.092Z,60.90
2018-02-15T02:08:56.632Z,60.90
2018-02-15T02:11:24.111Z,61.10
2018-02-15T02:13:51.597Z,61.00
2018-02-15T02:16:19.844Z,61.30
2018-02-15T02:18:47.334Z,61.20
2018-02-15T02:21:15.566Z,62.80
2018-02-15T02:23:43.106Z,62.70
2018-02-15T02:26:10.576Z,61.90
2018-02-15T02:28:38.067Z,61.50
2018-02-15T02:31:05.541Z,61.30
2018-02-15T02:33:33.798Z,61.80
2018-02-15T02:36:01.272Z,61.70
2018-02-15T02:38:28.773Z,62.50
2018-02-15T02:40:56.243Z,61.70
2018-02-15T02:43:23.750Z,61.50
2018-02-15T02:45:51.982Z,61.00
2018-02-15T02:48:19.866Z,61.00
2018-02-15T02:50:47.386Z,61.20
2018-02-15T02:53:14.839Z,61.40
2018-02-15T02:55:42.346Z,61.20
2018-02-15T02:58:09.807Z,61.60
2018-02-15T03:00:37.316Z,61.70
2018-02-15T03:03:04.786Z,61.50
2018-02-15T03:05:32.278Z,61.40
2018-02-15T03:07:59.766Z,61.10
2018-02-15T03:10:28.036Z,61.50
2018-02-15T03:12:56.266Z,61.10
2018-02-15T03:15:23.762Z,61.10
2018-02-15T03:17:51.992Z,61.30
2018-02-15T03:20:19.496Z,61.30
2018-02-15T03:22:47.726Z,61.90
2018-02-15T03:25:15.217Z,61.90
2018-02-15T03:27:42.723Z,61.70
2018-02-15T03:30:10.210Z,61.90
2018-02-15T03:32:37.739Z,61.90
2018-02-15T03:35:05.228Z,61.80
2018-02-15T03:37:32.708Z,61.90
2018-02-15T03:40:00.237Z,62.00
2018-02-15T03:42:27.729Z,62.50
2018-02-15T03:44:55.172Z,61.70
2018-02-15T03:47:22.788Z,61.90
2018-02-15T03:49:50.267Z,62.00
2018-02-15T03:52:17.776Z,61.70
2018-02-15T03:54:46.840Z,61.40
2018-02-15T03:57:14.330Z,61.30
2018-02-15T03:59:42.672Z,61.20
2018-02-15T04:02:10.166Z,61.20
2018-02-15T04:04:38.401Z,61.90
2018-02-15T04:07:05.891Z,61.90
2018-02-15T04:09:34.119Z,61.90
2018-02-15T04:12:01.620Z,61.90
2018-02-15T04:14:29.090Z,61.90
2018-02-15T04:16:57.364Z,61.60
2018-02-15T04:19:25.597Z,61.60
2018-02-15T04:21:53.093Z,61.50
2018-02-15T04:24:21.331Z,61.60
2018-02-15T04:26:48.836Z,61.60
2018-02-15T04:29:17.072Z,61.20
2018-02-15T04:31:44.567Z,61.20
2018-02-15T04:34:12.803Z,61.20
2018-02-15T04:36:40.291Z,61.10
2018-02-15T04:39:08.533Z,61.50
2018-02-15T04:41:36.785Z,61.60
2018-02-15T04:44:04.271Z,61.60
2018-02-15T04:46:31.774Z,62.50
2018-02-15T04:49:00.016Z,63.10
2018-02-15T04:51:27.510Z,63.10
2018-02-15T04:53:54.982Z,62.80
2018-02-15T04:56:22.481Z,63.80
2018-02-15T04:58:49.952Z,66.10
2018-02-15T05:01:17.729Z,68.60
2018-02-15T05:03:45.966Z,68.70
2018-02-15T05:06:13.445Z,68.70
2018-02-15T05:08:40.932Z,70.80
2018-02-15T05:11:09.176Z,73.40
2018-02-15T05:13:36.677Z,73.30
2018-02-15T05:16:04.147Z,73.80
2018-02-15T05:18:31.707Z,73.10
2018-02-15T05:20:59.173Z,74.80
2018-02-15T05:23:26.676Z,75.00
2018-02-15T05:25:54.170Z,76.80
2018-02-15T05:28:21.712Z,79.50
2018-02-15T05:30:50.014Z,83.20
2018-02-15T05:33:17.525Z,83.40
2018-02-15T05:35:44.999Z,84.90
2018-02-15T05:38:13.274Z,88.90
2018-02-15T05:40:41.506Z,90.00
2018-02-15T05:43:09.010Z,90.00
2018-02-15T05:45:37.260Z,91.40
2018-02-15T05:48:04.760Z,91.40
2018-02-15T05:50:32.273Z,91.70
2018-02-15T05:53:00.023Z,92.10
2018-02-15T05:55:27.491Z,92.50
2018-02-15T05:57:55.147Z,92.80
2018-02-15T06:00:22.682Z,93.00
2018-02-15T06:02:50.185Z,93.30
2018-02-15T06:05:17.676Z,93.70
2018-02-15T06:07:45.179Z,94.10
2018-02-15T06:10:12.659Z,94.30
2018-02-15T06:12:40.161Z,94.70
2018-02-15T06:15:07.643Z,94.80
2018-02-15T06:17:35.144Z,94.90
2018-02-15T06:20:03.388Z,95.20
2018-02-15T06:22:30.907Z,95.10
2018-02-15T06:24:58.401Z,95.20
2018-02-15T06:27:25.874Z,95.10
2018-02-15T06:29:53.681Z,95.10
2018-02-15T06:32:21.153Z,95.10
2018-02-15T06:34:48.657Z,95.30
2018-02-15T06:37:16.141Z,95.40
2018-02-15T06:39:44.412Z,95.50
2018-02-15T06:42:12.651Z,95.50
2018-02-15T06:44:40.161Z,95.50
2018-02-15T06:47:07.646Z,95.60
2018-02-15T06:49:35.150Z,95.80
2018-02-15T06:52:02.626Z,95.90
2018-02-15T06:54:30.898Z,96.80
2018-02-15T06:56:59.149Z,96.80
2018-02-15T06:59:26.658Z,96.80
2018-02-15T07:01:54.121Z,97.00
2018-02-15T07:04:21.619Z,97.40
2018-02-15T07:06:49.109Z,97.40
2018-02-15T07:09:17.888Z,97.80
2018-02-15T07:11:46.342Z,97.90
2018-02-15T07:14:13.823Z,97.70
2018-02-15T07:16:42.100Z,98.20
2018-02-15T07:19:10.382Z,98.40
2018-02-15T07:21:38.614Z,97.90
2018-02-15T07:24:06.524Z,97.90
2018-02-15T07:26:35.452Z,97.90
2018-02-15T07:29:02.943Z,97.90
2018-02-15T07:31:30.444Z,98.00
2018-02-15T07:33:57.937Z,98.10
2018-02-15T07:36:25.497Z,98.20
2018-02-15T07:38:53.699Z,98.20
2018-02-15T07:41:21.205Z,98.20
2018-02-15T07:43:48.690Z,98.20
2018-02-15T07:46:16.204Z,98.10
2018-02-15T07:48:44.441Z,98.30
2018-02-15T07:51:11.952Z,98.30
2018-02-15T07:53:39.429Z,98.50
2018-02-15T07:56:06.937Z,98.60
2018-02-15T07:58:34.421Z,98.60
2018-02-15T08:01:01.916Z,99.00
2018-02-15T08:03:29.414Z,98.50
2018-02-15T08:05:57.659Z,99.20
2018-02-15T08:08:25.188Z,98.90
2018-02-15T08:10:52.666Z,99.20
2018-02-15T08:13:20.166Z,99.40
2018-02-15T08:15:48.415Z,99.50
2018-02-15T08:18:15.910Z,99.50
2018-02-15T08:20:44.139Z,99.70
2018-02-15T08:23:11.664Z,99.60
2018-02-15T08:25:39.165Z,99.50
2018-02-15T08:28:06.670Z,99.60
2018-02-15T08:30:34.148Z,99.70
2018-02-15T08:33:01.650Z,99.80
2018-02-15T08:35:29.157Z,99.80
2018-02-15T08:37:56.803Z,99.80
2018-02-15T08:40:25.044Z,99.60
2018-02-15T08:42:52.545Z,99.90
2018-02-15T08:45:20.084Z,99.70
2018-02-15T08:47:48.329Z,99.90
2018-02-15T08:50:15.819Z,99.90
2018-02-15T08:52:44.064Z,99.90
2018-02-15T08:55:11.580Z,99.90
2018-02-15T08:57:39.055Z,99.90
2018-02-15T09:00:06.549Z,99.90
2018-02-15T09:02:34.028Z,99.90
2018-02-15T09:05:02.295Z,99.90
2018-02-15T09:07:30.528Z,99.90
2018-02-15T09:09:58.056Z,99.90
2018-02-15T09:12:25.522Z,99.90
2018-02-15T09:14:53.056Z,99.90
2018-02-15T09:17:21.294Z,99.90
2018-02-15T09:19:48.783Z,99.90
2018-02-15T09:22:17.010Z,99.90
2018-02-15T09:24:44.777Z,99.90
2018-02-15T09:27:12.246Z,99.80
2018-02-15T09:29:39.748Z,99.60
2018-02-15T09:32:07.221Z,99.60
2018-02-15T09:34:34.725Z,99.50
2018-02-15T09:37:02.199Z,99.90
2018-02-15T09:39:29.678Z,99.90
2018-02-15T09:41:58.074Z,99.90
2018-02-15T09:44:25.598Z,99.90
2018-02-15T09:46:53.860Z,99.90
2018-02-15T09:49:21.364Z,99.90
2018-02-15T09:51:48.823Z,99.90
2018-02-15T09:54:16.333Z,99.90
2018-02-15T09:56:43.807Z,99.90
2018-02-15T09:59:12.081Z,99.90
2018-02-15T10:01:40.319Z,99.90
2018-02-15T10:04:07.825Z,99.90
2018-02-15T10:06:36.074Z,99.90
2018-02-15T10:09:03.594Z,99.90
2018-02-15T10:11:31.065Z,99.90
2018-02-15T10:13:58.561Z,99.90
2018-02-15T10:16:26.802Z,99.90
2018-02-15T10:18:54.316Z,99.90
2018-02-15T10:21:21.805Z,99.90
2018-02-15T10:23:49.304Z,99.40
2018-02-15T10:26:16.786Z,98.70
2018-02-15T10:28:45.106Z,99.40
2018-02-15T10:31:12.566Z,99.40
2018-02-15T10:33:40.074Z,99.00
2018-02-15T10:36:08.306Z,98.70
2018-02-15T10:38:35.825Z,98.70
2018-02-15T10:41:03.303Z,99.00
2018-02-15T10:43:30.784Z,98.90
2018-02-15T10:45:58.361Z,99.10
2018-02-15T10:48:25.815Z,98.80
2018-02-15T10:50:53.329Z,99.10
2018-02-15T10:53:20.821Z,98.40
2018-02-15T10:55:48.325Z,99.20
2018-02-15T10:58:16.550Z,99.90
2018-02-15T11:00:49.692Z,99.90
2018-02-15T11:03:22.843Z,99.90
2018-02-15T11:05:50.353Z,99.90
2018-02-15T11:08:17.935Z,99.90
2018-02-15T11:13:19.263Z,99.80
2018-02-15T11:15:47.599Z,99.50
2018-02-15T11:18:15.038Z,99.50
2018-02-15T11:20:42.542Z,99.50
2018-02-15T11:23:10.787Z,99.90
2018-02-15T11:25:38.284Z,99.90
2018-02-15T11:28:06.553Z,99.90
2018-02-15T11:30:34.818Z,99.90
2018-02-15T11:33:02.304Z,99.90
2018-02-15T11:35:30.569Z,99.90
2018-02-15T11:37:58.794Z,99.90
2018-02-15T11:40:26.315Z,99.90
2018-02-15T11:42:53.799Z,99.90
2018-02-15T11:45:21.305Z,99.90
2018-02-15T11:47:49.531Z,99.70
2018-02-15T11:50:17.026Z,99.60
2018-02-15T11:52:44.531Z,99.60
2018-02-15T11:55:12.027Z,99.90
2018-02-15T11:57:39.516Z,99.90
2018-02-15T12:00:07.854Z,99.90
2018-02-15T12:02:35.321Z,99.90
2018-02-15T12:05:02.823Z,99.90
2018-02-15T12:07:31.052Z,99.90
2018-02-15T12:09:58.555Z,99.90
2018-02-15T12:12:26.072Z,99.90
2018-02-15T12:14:53.546Z,99.90
2018-02-15T12:17:22.086Z,99.90
2018-02-15T12:19:49.547Z,99.90
2018-02-15T12:22:17.114Z,99.90
2018-02-15T12:24:44.846Z,99.90
2018-02-15T12:27:12.356Z,99.90
2018-02-15T12:29:39.829Z,99.90
2018-02-15T12:32:08.127Z,99.90
2018-02-15T12:34:36.374Z,99.90
2018-02-15T12:37:03.878Z,99.90
2018-02-15T12:39:31.412Z,99.90
2018-02-15T12:41:58.999Z,99.90
2018-02-15T12:44:26.517Z,99.90
2018-02-15T12:46:54.870Z,99.90
2018-02-15T12:49:22.337Z,99.90
2018-02-15T12:51:49.902Z,99.90
2018-02-15T12:54:17.428Z,99.90
2018-02-15T12:56:44.935Z,99.90
2018-02-15T12:59:13.189Z,99.90
2018-02-15T13:01:40.683Z,99.90
2018-02-15T13:04:08.175Z,99.90
2018-02-15T13:06:36.497Z,99.90
2018-02-15T13:09:04.948Z,99.90
2018-02-15T13:11:32.414Z,99.90
2018-02-15T13:13:59.949Z,99.90
2018-02-15T13:16:39.160Z,99.90
2018-02-15T13:19:18.737Z,99.90
2018-02-15T13:21:46.203Z,99.90
2018-02-15T13:24:13.750Z,99.90
2018-02-15T13:26:41.227Z,99.90
2018-02-15T13:29:08.953Z,99.90
2018-02-15T13:31:37.152Z,99.90
2018-02-15T13:34:04.675Z,99.90
2018-02-15T13:36:32.247Z,99.50
2018-02-15T13:38:59.745Z,99.90
2018-02-15T13:41:27.259Z,99.90
2018-02-15T13:43:54.749Z,99.90
2018-02-15T13:46:22.226Z,99.90
2018-02-15T13:48:49.740Z,99.90
2018-02-15T13:51:17.215Z,99.90
2018-02-15T13:53:44.709Z,99.90
2018-02-15T13:56:13.287Z,99.90
2018-02-15T13:58:41.569Z,99.90
2018-02-15T14:01:10.641Z,99.90
2018-02-15T14:03:38.310Z,99.90
2018-02-15T14:06:05.796Z,99.90
2018-02-15T14:08:34.072Z,99.70
2018-02-15T14:11:01.575Z,99.60
2018-02-15T14:13:29.075Z,99.90
2018-02-15T14:15:57.326Z,99.90
2018-02-15T14:18:24.823Z,99.90
2018-02-15T14:20:52.337Z,99.90
2018-02-15T14:23:19.837Z,99.90
2018-02-15T14:25:48.082Z,99.90
2018-02-15T14:28:15.574Z,99.90
2018-02-15T14:30:43.055Z,99.90
2018-02-15T14:33:10.594Z,99.90
2018-02-15T14:35:38.096Z,99.90
2018-02-15T14:38:05.628Z,99.90
2018-02-15T14:40:33.106Z,99.90
2018-02-15T14:43:00.668Z,99.90
2018-02-15T14:45:28.176Z,99.90
2018-02-15T14:47:56.424Z,99.90
2018-02-15T14:50:23.914Z,99.90
2018-02-15T14:52:51.430Z,99.90
2018-02-15T14:55:18.922Z,99.90
2018-02-15T14:57:47.166Z,99.90
2018-02-15T15:00:14.677Z,99.90
2018-02-15T15:02:42.191Z,99.90
2018-02-15T15:05:09.688Z,99.90
2018-02-15T15:07:37.168Z,99.90
2018-02-15T15:10:04.690Z,99.90
2018-02-15T15:12:32.931Z,99.90
2018-02-15T15:15:01.218Z,99.90
2018-02-15T15:17:28.719Z,99.90
2018-02-15T15:19:56.284Z,99.90
2018-02-15T15:22:23.746Z,99.90
2018-02-15T15:24:51.270Z,99.90
2018-02-15T15:27:19.524Z,99.90
2018-02-15T15:29:47.054Z,99.90
2018-02-15T15:32:14.534Z,99.90
2018-02-15T15:34:42.041Z,99.90
2018-02-15T15:37:10.531Z,99.90
2018-02-15T15:39:38.405Z,99.90
2018-02-15T15:42:05.874Z,99.90
2018-02-15T15:44:33.481Z,99.90
2018-02-15T15:47:00.990Z,99.90
2018-02-15T15:49:28.495Z,99.90
2018-02-15T15:51:56.755Z,99.90
2018-02-15T15:54:24.248Z,99.90
2018-02-15T15:56:52.603Z,99.90
2018-02-15T15:59:20.201Z,99.90
2018-02-15T16:01:47.701Z,99.90
2018-02-15T16:04:15.192Z,99.90
2018-02-15T16:06:43.605Z,99.90
2018-02-15T16:09:11.088Z,99.90
2018-02-15T16:11:38.611Z,99.90
2018-02-15T16:14:06.090Z,99.90
2018-02-15T16:16:33.626Z,99.90
2018-02-15T16:19:01.104Z,99.90
2018-02-15T16:21:28.612Z,99.90
2018-02-15T16:23:56.876Z,99.90
2018-02-15T16:26:24.381Z,99.90
2018-02-15T16:28:51.863Z,99.90
2018-02-15T16:31:19.409Z,99.90
2018-02-15T16:33:46.890Z,99.90
2018-02-15T16:36:14.380Z,99.90
2018-02-15T16:38:42.631Z,99.90
2018-02-15T16:41:10.117Z,99.90
2018-02-15T16:43:37.641Z,99.90
2018-02-15T16:46:05.432Z,99.90
2018-02-15T16:48:33.350Z,99.90
2018-02-15T16:51:00.828Z,99.90
2018-02-15T16:53:28.316Z,99.90
2018-02-15T16:55:56.567Z,99.90
2018-02-15T16:58:24.066Z,99.90
2018-02-15T17:00:52.318Z,99.90
2018-02-15T17:03:19.826Z,99.90
2018-02-15T17:05:47.341Z,99.90
2018-02-15T17:08:14.835Z,99.90
2018-02-15T17:10:42.323Z,99.90
2018-02-15T17:13:09.894Z,99.90
2018-02-15T17:15:38.468Z,99.90
2018-02-15T17:18:05.965Z,99.90
2018-02-15T17:20:33.664Z,99.90
2018-02-15T17:23:01.149Z,99.90
2018-02-15T17:25:28.742Z,99.90
2018-02-15T17:27:56.251Z,99.90
2018-02-15T17:30:23.771Z,99.90
2018-02-15T17:32:51.256Z,99.90
2018-02-15T17:35:18.799Z,99.90
2018-02-15T17:37:46.285Z,99.90
2018-02-15T17:40:13.793Z,99.90
2018-02-15T17:42:41.495Z,99.90
2018-02-15T17:45:09.011Z,99.90
2018-02-15T17:47:37.265Z,99.90
2018-02-15T17:50:04.757Z,99.90
2018-02-15T17:52:33.068Z,99.90
2018-02-15T17:55:00.580Z,99.90
2018-02-15T17:57:29.625Z,99.90
2018-02-15T17:59:57.095Z,99.90
2018-02-15T18:02:24.647Z,99.90
2018-02-15T18:04:52.130Z,99.90
2018-02-15T18:07:19.643Z,99.90
2018-02-15T18:09:47.139Z,99.90
2018-02-15T18:12:14.673Z,99.90
2018-02-15T18:14:42.930Z,99.90
2018-02-15T18:17:10.435Z,99.90
2018-02-15T18:19:37.950Z,99.90
2018-02-15T18:22:05.454Z,99.90
2018-02-15T18:24:32.933Z,99.90
2018-02-15T18:27:01.188Z,99.90
2018-02-15T18:29:28.828Z,99.90
2018-02-15T18:31:56.334Z,99.90
2018-02-15T18:34:24.600Z,99.90
2018-02-15T18:36:52.906Z,99.90
2018-02-15T18:39:20.433Z,99.90
2018-02-15T18:41:47.932Z,99.90
2018-02-15T18:44:15.436Z,99.90
2018-02-15T18:46:42.905Z,99.90
2018-02-15T18:49:10.435Z,99.90
2018-02-15T18:51:37.929Z,99.90
2018-02-15T18:54:06.183Z,99.90
2018-02-15T18:56:33.787Z,99.90
2018-02-15T18:59:01.283Z,99.90
2018-02-15T19:01:29.764Z,99.90
2018-02-15T19:03:57.262Z,99.90
2018-02-15T19:06:25.582Z,99.90
2018-02-15T19:08:53.128Z,99.90
2018-02-15T19:11:20.654Z,99.90
2018-02-15T19:13:48.124Z,99.90
2018-02-15T19:16:16.418Z,99.90
2018-02-15T19:18:43.892Z,99.90
2018-02-15T19:21:11.391Z,99.90
2018-02-15T19:23:39.947Z,99.90
2018-02-15T19:26:08.264Z,99.90
2018-02-15T19:28:36.576Z,99.90
2018-02-15T19:31:04.182Z,99.90
2018-02-15T19:33:31.662Z,99.90
2018-02-15T19:35:59.962Z,99.90
2018-02-15T19:38:27.461Z,99.90
2018-02-15T19:40:54.977Z,99.90
2018-02-15T19:43:22.475Z,99.90
2018-02-15T19:45:49.987Z,99.90
2018-02-15T19:48:18.231Z,99.90
2018-02-15T19:50:45.755Z,99.90
2018-02-15T19:53:13.263Z,99.90
2018-02-15T19:55:41.521Z,99.90
2018-02-15T19:58:09.054Z,99.90
2018-02-15T20:00:36.585Z,99.90
2018-02-15T20:03:04.151Z,99.90
2018-02-15T20:05:31.649Z,99.90
2018-02-15T20:07:59.151Z,99.90
2018-02-15T20:10:26.733Z,99.90
2018-02-15T20:12:54.238Z,99.90
2018-02-15T20:15:21.700Z,99.90
2018-02-15T20:17:49.232Z,99.90
2018-02-15T20:20:22.446Z,99.90
2018-02-15T20:22:50.703Z,99.90
2018-02-15T20:25:18.183Z,99.90
2018-02-15T20:27:51.295Z,99.90
2018-02-15T20:30:19.533Z,99.90
2018-02-15T20:32:47.047Z,99.90
2018-02-15T20:35:14.528Z,99.90
2018-02-15T20:37:47.836Z,99.90
2018-02-15T20:40:21.117Z,99.90
2018-02-15T20:42:48.611Z,99.90
2018-02-15T20:45:16.108Z,99.90
2018-02-15T20:47:43.599Z,99.90
2018-02-15T20:50:16.756Z,99.90
2018-02-15T20:52:49.859Z,99.90
2018-02-15T20:55:22.943Z,99.90
2018-02-15T20:57:50.489Z,99.90
2018-02-15T21:00:17.943Z,99.90
2018-02-15T21:02:45.434Z,99.90
2018-02-15T21:05:12.973Z,99.90
2018-02-15T21:07:41.193Z,99.90
2018-02-15T21:10:08.698Z,99.90
2018-02-15T21:12:36.207Z,99.90
2018-02-15T21:15:03.820Z,99.90
2018-02-15T21:17:31.282Z,99.90
2018-02-15T21:19:58.788Z,99.90
2018-02-15T21:22:26.363Z,99.90
2018-02-15T21:24:54.773Z,99.90
2018-02-15T21:27:22.284Z,99.90
2018-02-15T21:29:49.773Z,99.90
2018-02-15T21:32:18.039Z,99.90
2018-02-15T21:34:46.274Z,99.90
2018-02-15T21:37:13.789Z,99.90
2018-02-15T21:39:41.325Z,99.90
2018-02-15T21:42:09.585Z,99.90
2018-02-15T21:44:37.129Z,99.90
2018-02-15T21:47:04.755Z,99.90
2018-02-15T21:49:32.238Z,99.90
2018-02-15T21:51:59.776Z,99.90
2018-02-15T21:54:27.260Z,99.90
2018-02-15T21:56:54.759Z,99.90
2018-02-15T21:59:23.001Z,99.90
2018-02-15T22:01:50.762Z,99.90
2018-02-15T22:04:18.240Z,99.90
2018-02-15T22:06:45.751Z,99.90
2018-02-15T22:09:13.250Z,99.90
2018-02-15T22:11:40.778Z,99.90
2018-02-15T22:14:08.252Z,99.90
2018-02-15T22:16:35.900Z,99.90
2018-02-15T22:19:04.260Z,99.90
2018-02-15T22:21:31.744Z,99.90
2018-02-15T22:23:59.239Z,99.90
2018-02-15T22:26:26.741Z,99.90
2018-02-15T22:28:54.253Z,99.90
2018-02-15T22:31:22.566Z,99.90
2018-02-15T22:33:50.636Z,99.90
2018-02-15T22:36:18.130Z,99.90
2018-02-15T22:38:45.614Z,99.90
2018-02-15T22:41:13.932Z,99.90
2018-02-15T22:43:41.536Z,99.90
2018-02-15T22:46:09.838Z,99.90
2018-02-15T22:48:38.079Z,99.90
2018-02-15T22:51:05.582Z,99.90
2018-02-15T22:53:33.263Z,99.90
2018-02-15T22:56:00.759Z,99.90
2018-02-15T22:58:28.280Z,99.90
2018-02-15T23:00:55.757Z,99.90
2018-02-15T23:03:23.273Z,99.90
2018-02-15T23:05:51.512Z,99.90
2018-02-15T23:08:19.001Z,99.90
2018-02-15T23:10:47.267Z,99.90
2018-02-15T23:13:14.779Z,99.90
2018-02-15T23:15:43.140Z,99.90
2018-02-15T23:18:10.638Z,99.90
2018-02-15T23:20:38.192Z,99.90
2018-02-15T23:23:05.685Z,99.90
2018-02-15T23:25:33.952Z,99.90
2018-02-15T23:28:02.006Z,99.90
2018-02-15T23:30:29.530Z,99.90
2018-02-15T23:32:57.871Z,99.90
2018-02-15T23:35:26.136Z,99.90
2018-02-15T23:37:53.605Z,99.90
2018-02-15T23:40:21.870Z,99.90
2018-02-15T23:42:50.108Z,99.90
2018-02-15T23:45:18.334Z,99.90
2018-02-15T23:47:46.587Z,99.90
2018-02-15T23:50:14.422Z,99.90
2018-02-15T23:52:41.913Z,99.90
2018-02-15T23:55:09.416Z,99.90
2018-02-15T23:57:36.932Z,99.90
